Saint-Prosper-De-Dorchester, Canada
Current Conditions -  °F | °C
As of 3:00 AM on Tuesday 21 Oct 2014 (Local Time) from CYQB Reporting Station
Broken Clouds Broken Clouds  
Wind Chill: 29°   Ceiling: 8900
Heat Index: 34°   Visibility: 15mi
Dew Point: 30°   Wind: 6mph
Humidity: 87%   Direction: 10°N
Pressure: 29.99"   Gusts: NA
Location:  46.2°N, 70.48°W
Report Text: CYQB 210700Z 01005KT 15SM BKN089 01/M01 A2999 RMK AC6 SLP159
Loading
Personal Weather Stations






























Interactive Weather Map
Tropical Storm Tracking
New forecast layout! Learn more

10-Day Weather Forecast

Advertisements
Track Severe Weather on mobile